createdAt,value
2022-12-12T08:11:11.858Z,73.97
2022-12-12T08:13:41.220Z,74.35
2022-12-12T08:16:23.234Z,73.03
2022-12-12T08:18:53.571Z,73.15
2022-12-12T08:21:25.899Z,72.73
2022-12-12T08:24:00.969Z,72.58
2022-12-12T08:26:30.171Z,72.29
2022-12-12T08:28:58.540Z,71.72
2022-12-12T08:31:27.345Z,70.84
2022-12-12T08:33:55.655Z,71.00
2022-12-12T08:36:31.516Z,71.56
2022-12-12T08:39:09.055Z,71.15
2022-12-12T08:41:41.737Z,70.48
2022-12-12T08:44:12.116Z,70.00
2022-12-12T08:46:40.127Z,69.12
2022-12-12T08:49:09.493Z,69.68
2022-12-12T08:51:41.582Z,69.47
2022-12-12T08:54:12.332Z,69.78
2022-12-12T08:56:41.157Z,70.42
2022-12-12T08:59:08.608Z,69.42
2022-12-12T09:01:36.410Z,70.16
2022-12-12T09:04:04.300Z,69.39
2022-12-12T09:06:31.685Z,68.89
2022-12-12T09:08:59.554Z,69.23
2022-12-12T09:11:27.247Z,69.48
2022-12-12T09:13:55.782Z,69.11
2022-12-12T09:16:26.442Z,69.73
2022-12-12T09:18:53.981Z,69.78
2022-12-12T09:21:21.709Z,68.97
2022-12-12T09:23:49.711Z,69.47
2022-12-12T09:26:18.026Z,68.07
2022-12-12T09:28:45.496Z,69.80
2022-12-12T09:31:13.916Z,68.91
2022-12-12T09:33:43.279Z,69.55
2022-12-12T09:36:12.409Z,69.90
2022-12-12T09:38:39.963Z,69.29
2022-12-12T09:41:20.488Z,69.34
2022-12-12T09:44:07.712Z,68.86
2022-12-12T09:47:09.287Z,68.13
2022-12-12T09:49:56.552Z,68.04
2022-12-12T09:52:37.809Z,68.95
2022-12-12T09:55:20.938Z,68.55
2022-12-12T09:58:03.325Z,68.43
2022-12-12T10:03:42.799Z,69.39
2022-12-12T10:06:36.415Z,69.36
2022-12-12T10:09:41.401Z,68.54
2022-12-12T10:12:16.546Z,68.69
2022-12-12T10:14:56.647Z,68.82
2022-12-12T10:17:42.690Z,67.89
2022-12-12T10:20:31.329Z,67.91
2022-12-12T10:23:20.204Z,67.36
2022-12-12T10:26:29.730Z,68.04
2022-12-12T10:29:14.878Z,68.20
2022-12-12T10:32:26.006Z,67.43
2022-12-12T10:35:33.808Z,67.89
2022-12-12T10:38:51.031Z,66.65
2022-12-12T10:41:49.116Z,66.81
2022-12-12T10:44:49.398Z,67.26
2022-12-12T10:47:16.750Z,66.40
2022-12-12T10:49:44.145Z,66.29
2022-12-12T10:52:22.509Z,65.14
2022-12-12T10:55:00.015Z,65.58
2022-12-12T10:57:36.370Z,64.43
2022-12-12T11:00:38.378Z,64.05
2022-12-12T11:03:38.891Z,62.41
2022-12-12T11:06:21.005Z,63.39
2022-12-12T11:09:07.300Z,64.24
2022-12-12T11:11:34.774Z,63.36
2022-12-12T11:14:21.043Z,63.75
2022-12-12T11:16:48.747Z,64.34
2022-12-12T11:19:27.384Z,63.12
2022-12-12T11:22:02.391Z,64.21
2022-12-12T11:24:34.894Z,64.50
2022-12-12T11:27:07.514Z,64.24
2022-12-12T11:29:40.792Z,63.87
2022-12-12T11:32:32.450Z,64.15
2022-12-12T11:35:06.562Z,64.79
2022-12-12T11:37:47.561Z,64.69
2022-12-12T11:40:36.838Z,66.11
2022-12-12T11:43:26.671Z,63.89
2022-12-12T11:46:13.522Z,63.67
2022-12-12T11:48:53.869Z,64.05
2022-12-12T11:51:43.176Z,64.85
2022-12-12T11:54:31.064Z,64.09
2022-12-12T11:57:47.944Z,63.83
2022-12-12T12:00:24.297Z,64.01
2022-12-12T12:03:25.470Z,63.18
2022-12-12T12:06:36.593Z,62.82
2022-12-12T12:10:07.055Z,64.14
2022-12-12T12:13:14.779Z,63.46
2022-12-12T12:16:47.246Z,64.34
2022-12-12T12:19:31.447Z,64.21
2022-12-12T12:23:14.151Z,63.08
2022-12-12T12:26:36.540Z,62.71
2022-12-12T12:29:57.174Z,62.34
2022-12-12T12:33:36.713Z,61.81
2022-12-12T12:36:33.904Z,61.74
2022-12-12T12:39:37.829Z,61.68
2022-12-12T12:43:20.757Z,62.05
2022-12-12T12:46:07.557Z,61.83
2022-12-12T12:49:01.673Z,61.47
2022-12-12T12:51:50.198Z,61.42
2022-12-12T12:54:44.042Z,60.94
2022-12-12T12:57:39.927Z,61.05
2022-12-12T13:00:21.410Z,61.34
2022-12-12T13:03:11.569Z,61.75
2022-12-12T13:05:56.997Z,61.80
2022-12-12T13:08:53.777Z,60.89
2022-12-12T13:11:42.819Z,61.27
2022-12-12T13:14:37.901Z,61.09
2022-12-12T13:17:18.140Z,61.42
2022-12-12T13:19:53.530Z,61.27
2022-12-12T13:22:57.421Z,61.22
2022-12-12T13:26:09.661Z,61.62
2022-12-12T13:29:32.282Z,61.35
2022-12-12T13:32:20.220Z,60.87
2022-12-12T13:34:56.276Z,60.49
2022-12-12T13:37:24.495Z,60.89
2022-12-12T13:40:04.795Z,60.32
2022-12-12T13:43:09.905Z,60.96
2022-12-12T13:45:56.584Z,60.77
2022-12-12T13:48:29.763Z,61.63
2022-12-12T13:51:27.876Z,61.92
2022-12-12T13:54:12.224Z,61.29
2022-12-12T13:57:12.336Z,61.70
2022-12-12T14:00:08.031Z,62.01
2022-12-12T14:02:41.652Z,61.73
2022-12-12T14:05:21.569Z,62.00
2022-12-12T14:08:10.685Z,61.70
2022-12-12T14:10:50.041Z,61.92
2022-12-12T14:13:23.276Z,61.72
2022-12-12T14:16:03.857Z,61.58
2022-12-12T14:18:59.126Z,61.87
2022-12-12T14:21:47.757Z,61.89
2022-12-12T14:24:33.402Z,61.47
2022-12-12T14:27:10.883Z,61.54
2022-12-12T14:29:45.883Z,61.92
2022-12-12T14:32:13.251Z,62.33
2022-12-12T14:35:47.506Z,62.34
2022-12-12T14:38:51.921Z,62.43
2022-12-12T14:41:31.332Z,63.07
2022-12-12T14:44:35.238Z,62.78
2022-12-12T14:46:59.234Z,62.23
2022-12-12T14:49:27.716Z,63.01
2022-12-12T14:51:58.200Z,63.24
2022-12-12T14:54:27.234Z,62.74
2022-12-12T14:56:59.402Z,62.76
2022-12-12T14:59:39.925Z,63.38
2022-12-12T15:02:39.179Z,62.93
2022-12-12T15:05:08.063Z,63.24
2022-12-12T15:07:39.027Z,62.66
2022-12-12T15:10:30.631Z,63.00
2022-12-12T15:12:58.017Z,63.62
2022-12-12T15:15:33.502Z,63.22
2022-12-12T15:18:01.926Z,63.25
2022-12-12T15:20:32.426Z,63.34
2022-12-12T15:23:07.413Z,63.59
2022-12-12T15:25:48.765Z,62.69
2022-12-12T15:28:21.700Z,62.86
2022-12-12T15:30:55.205Z,62.79
2022-12-12T15:33:27.696Z,62.90
2022-12-12T15:36:05.361Z,63.61
2022-12-12T15:38:34.499Z,63.39
2022-12-12T15:41:11.187Z,63.12
2022-12-12T15:43:41.194Z,63.08
2022-12-12T15:46:15.691Z,63.54
2022-12-12T15:48:50.404Z,63.37
2022-12-12T15:51:24.790Z,63.51
2022-12-12T15:53:55.426Z,63.79
2022-12-12T15:56:29.151Z,63.45
2022-12-12T15:59:05.548Z,63.32
2022-12-12T16:01:33.445Z,63.75
2022-12-12T16:04:25.048Z,63.11
2022-12-12T16:06:52.573Z,63.22
2022-12-12T16:09:24.940Z,63.29
2022-12-12T16:11:59.518Z,63.19
2022-12-12T16:14:40.747Z,63.62
2022-12-12T16:17:25.644Z,63.07
2022-12-12T16:20:07.519Z,63.37
2022-12-12T16:22:49.797Z,63.17
2022-12-12T16:25:29.455Z,63.68
2022-12-12T16:28:08.454Z,63.36
2022-12-12T16:30:38.693Z,63.37
2022-12-12T16:33:35.227Z,63.60
2022-12-12T16:36:14.442Z,63.70
2022-12-12T16:38:43.197Z,63.63
2022-12-12T16:41:18.356Z,63.84
2022-12-12T16:43:46.103Z,63.55
2022-12-12T16:46:31.758Z,63.73
2022-12-12T16:49:09.373Z,64.08
2022-12-12T16:51:41.365Z,64.05
2022-12-12T16:54:17.095Z,64.11
2022-12-12T16:56:50.526Z,64.28
2022-12-12T16:59:18.322Z,65.12
2022-12-12T17:01:46.050Z,64.46
2022-12-12T17:04:23.629Z,64.31
2022-12-12T17:06:51.554Z,64.40
2022-12-12T17:09:19.841Z,64.45
2022-12-12T17:11:47.451Z,64.41
2022-12-12T17:14:24.699Z,64.30
2022-12-12T17:16:56.172Z,64.61
2022-12-12T17:19:23.642Z,64.30
2022-12-12T17:21:51.048Z,64.74
2022-12-12T17:24:18.488Z,64.30
2022-12-12T17:26:46.223Z,64.43
2022-12-12T17:29:13.617Z,64.38
2022-12-12T17:31:41.059Z,64.33
2022-12-12T17:34:08.591Z,64.45
2022-12-12T17:36:36.023Z,64.66
2022-12-12T17:39:04.576Z,64.87
2022-12-12T17:41:31.917Z,64.49
2022-12-12T17:43:59.819Z,65.22
2022-12-12T17:46:28.810Z,64.85
2022-12-12T17:48:59.375Z,64.64
2022-12-12T17:51:27.724Z,64.69
2022-12-12T17:53:55.346Z,64.51
2022-12-12T17:56:25.309Z,64.97
2022-12-12T17:58:54.719Z,64.74
2022-12-12T18:01:33.627Z,64.67
2022-12-12T18:04:03.741Z,64.97
2022-12-12T18:06:34.629Z,64.45
2022-12-12T18:09:03.072Z,64.81
2022-12-12T18:11:35.672Z,64.20
2022-12-12T18:14:07.576Z,64.53
2022-12-12T18:16:36.336Z,64.04
2022-12-12T18:19:04.133Z,64.43
2022-12-12T18:24:25.454Z,64.19
2022-12-12T18:26:57.523Z,64.59
2022-12-12T18:29:26.561Z,64.64
2022-12-12T18:31:54.521Z,64.05
2022-12-12T18:34:22.375Z,64.59
2022-12-12T18:36:50.174Z,64.17
2022-12-12T18:39:17.996Z,63.92
2022-12-12T18:41:45.574Z,63.99
2022-12-12T18:44:16.022Z,63.71
2022-12-12T18:46:44.681Z,64.08
2022-12-12T18:49:16.023Z,63.79
2022-12-12T18:51:47.723Z,64.07
2022-12-12T18:54:32.627Z,63.78
2022-12-12T18:57:00.029Z,64.15
2022-12-12T18:59:27.427Z,63.76
2022-12-12T19:01:54.921Z,63.79
2022-12-12T19:04:23.717Z,63.67
2022-12-12T19:06:51.791Z,63.89
